sensor_id;sensor_type;location;lat;lon;timestamp;temperature;humidity
10566;DHT22;5331;48.148;16.326;2022-07-29T00:00:12;20.60;1.00
10566;DHT22;5331;48.148;16.326;2022-07-29T00:02:39;20.60;1.00
10566;DHT22;5331;48.148;16.326;2022-07-29T00:05:08;20.50;1.00
10566;DHT22;5331;48.148;16.326;2022-07-29T00:07:35;20.40;1.00
10566;DHT22;5331;48.148;16.326;2022-07-29T00:10:02;20.40;1.00
10566;DHT22;5331;48.148;16.326;2022-07-29T00:12:31;20.40;1.00
10566;DHT22;5331;48.148;16.326;2022-07-29T00:14:58;20.40;1.00
10566;DHT22;5331;48.148;16.326;2022-07-29T00:17:25;20.40;1.00
10566;DHT22;5331;48.148;16.326;2022-07-29T00:19:52;20.40;1.00
10566;DHT22;5331;48.148;16.326;2022-07-29T00:22:19;20.30;1.00
10566;DHT22;5331;48.148;16.326;2022-07-29T00:24:47;20.30;1.00
10566;DHT22;5331;48.148;16.326;2022-07-29T00:27:14;20.20;1.00
10566;DHT22;5331;48.148;16.326;2022-07-29T00:29:42;20.20;1.00
10566;DHT22;5331;48.148;16.326;2022-07-29T00:32:09;20.10;1.00
10566;DHT22;5331;48.148;16.326;2022-07-29T00:34:36;20.10;1.00
10566;DHT22;5331;48.148;16.326;2022-07-29T00:37:20;20.00;1.00
10566;DHT22;5331;48.148;16.326;2022-07-29T00:39:47;20.00;1.00
10566;DHT22;5331;48.148;16.326;2022-07-29T00:42:14;20.00;1.00
10566;DHT22;5331;48.148;16.326;2022-07-29T00:44:43;20.00;1.00
10566;DHT22;5331;48.148;16.326;2022-07-29T00:47:11;19.90;1.00
10566;DHT22;5331;48.148;16.326;2022-07-29T00:49:39;19.90;1.00
10566;DHT22;5331;48.148;16.326;2022-07-29T00:52:08;19.90;1.00
10566;DHT22;5331;48.148;16.326;2022-07-29T00:54:36;19.90;1.00
10566;DHT22;5331;48.148;16.326;2022-07-29T00:57:06;19.80;1.00
10566;DHT22;5331;48.148;16.326;2022-07-29T00:59:33;19.80;1.00
10566;DHT22;5331;48.148;16.326;2022-07-29T01:02:01;19.80;1.00
10566;DHT22;5331;48.148;16.326;2022-07-29T01:04:28;19.70;1.00
10566;DHT22;5331;48.148;16.326;2022-07-29T01:06:56;19.60;1.00
10566;DHT22;5331;48.148;16.326;2022-07-29T01:09:23;19.60;1.00
10566;DHT22;5331;48.148;16.326;2022-07-29T01:11:50;19.60;1.00
10566;DHT22;5331;48.148;16.326;2022-07-29T01:14:18;19.50;1.00
10566;DHT22;5331;48.148;16.326;2022-07-29T01:16:51;19.50;1.00
10566;DHT22;5331;48.148;16.326;2022-07-29T01:19:48;19.50;1.00
10566;DHT22;5331;48.148;16.326;2022-07-29T01:22:31;19.50;1.00
10566;DHT22;5331;48.148;16.326;2022-07-29T01:25:12;19.40;1.00
10566;DHT22;5331;48.148;16.326;2022-07-29T01:28:07;19.40;1.00
10566;DHT22;5331;48.148;16.326;2022-07-29T01:30:38;19.30;1.00
10566;DHT22;5331;48.148;16.326;2022-07-29T01:33:11;19.20;1.00
10566;DHT22;5331;48.148;16.326;2022-07-29T01:36:02;19.20;1.00
10566;DHT22;5331;48.148;16.326;2022-07-29T01:38:31;19.20;1.00
10566;DHT22;5331;48.148;16.326;2022-07-29T01:41:02;19.20;1.00
10566;DHT22;5331;48.148;16.326;2022-07-29T01:43:36;19.10;1.00
10566;DHT22;5331;48.148;16.326;2022-07-29T01:46:07;19.10;1.00
10566;DHT22;5331;48.148;16.326;2022-07-29T01:48:40;19.10;1.00
10566;DHT22;5331;48.148;16.326;2022-07-29T01:51:14;19.10;1.00
10566;DHT22;5331;48.148;16.326;2022-07-29T01:53:52;19.00;1.00
10566;DHT22;5331;48.148;16.326;2022-07-29T01:56:23;19.00;1.00
10566;DHT22;5331;48.148;16.326;2022-07-29T01:58:52;18.90;1.00
10566;DHT22;5331;48.148;16.326;2022-07-29T02:01:22;18.90;1.00
10566;DHT22;5331;48.148;16.326;2022-07-29T02:03:50;18.80;1.00
10566;DHT22;5331;48.148;16.326;2022-07-29T02:06:22;18.80;1.00
10566;DHT22;5331;48.148;16.326;2022-07-29T02:08:52;18.80;1.00
10566;DHT22;5331;48.148;16.326;2022-07-29T02:11:19;18.80;1.00
10566;DHT22;5331;48.148;16.326;2022-07-29T02:13:47;18.80;1.00
10566;DHT22;5331;48.148;16.326;2022-07-29T02:16:16;18.80;1.00
10566;DHT22;5331;48.148;16.326;2022-07-29T02:18:49;18.80;1.00
10566;DHT22;5331;48.148;16.326;2022-07-29T02:21:21;18.70;1.00
10566;DHT22;5331;48.148;16.326;2022-07-29T02:23:50;18.70;1.00
10566;DHT22;5331;48.148;16.326;2022-07-29T02:26:20;18.70;1.00
10566;DHT22;5331;48.148;16.326;2022-07-29T02:28:48;18.70;1.00
10566;DHT22;5331;48.148;16.326;2022-07-29T02:31:18;18.60;1.00
10566;DHT22;5331;48.148;16.326;2022-07-29T02:33:48;18.60;1.00
10566;DHT22;5331;48.148;16.326;2022-07-29T02:36:16;18.60;1.00
10566;DHT22;5331;48.148;16.326;2022-07-29T02:38:43;18.60;1.00
10566;DHT22;5331;48.148;16.326;2022-07-29T02:41:24;18.60;1.00
10566;DHT22;5331;48.148;16.326;2022-07-29T02:43:56;18.50;1.00
10566;DHT22;5331;48.148;16.326;2022-07-29T02:46:28;18.50;1.00
10566;DHT22;5331;48.148;16.326;2022-07-29T02:49:01;18.50;1.00
10566;DHT22;5331;48.148;16.326;2022-07-29T02:51:36;18.40;1.00
10566;DHT22;5331;48.148;16.326;2022-07-29T02:54:07;18.30;1.00
10566;DHT22;5331;48.148;16.326;2022-07-29T02:56:36;18.20;1.00
10566;DHT22;5331;48.148;16.326;2022-07-29T02:59:08;18.20;1.00
10566;DHT22;5331;48.148;16.326;2022-07-29T03:01:40;18.20;1.00
10566;DHT22;5331;48.148;16.326;2022-07-29T03:04:11;18.10;1.00
10566;DHT22;5331;48.148;16.326;2022-07-29T03:06:40;18.10;1.00
10566;DHT22;5331;48.148;16.326;2022-07-29T03:09:10;18.10;1.00
10566;DHT22;5331;48.148;16.326;2022-07-29T03:11:38;18.10;1.00
10566;DHT22;5331;48.148;16.326;2022-07-29T03:14:06;18.10;1.00
10566;DHT22;5331;48.148;16.326;2022-07-29T03:16:33;18.10;1.00
10566;DHT22;5331;48.148;16.326;2022-07-29T03:19:03;18.10;1.00
10566;DHT22;5331;48.148;16.326;2022-07-29T03:21:32;18.10;1.00
10566;DHT22;5331;48.148;16.326;2022-07-29T03:24:00;18.10;1.00
10566;DHT22;5331;48.148;16.326;2022-07-29T03:26:27;18.10;1.00
10566;DHT22;5331;48.148;16.326;2022-07-29T03:28:54;18.10;1.00
10566;DHT22;5331;48.148;16.326;2022-07-29T03:31:21;18.10;1.00
10566;DHT22;5331;48.148;16.326;2022-07-29T03:33:48;18.10;1.00
10566;DHT22;5331;48.148;16.326;2022-07-29T03:36:15;18.00;1.00
10566;DHT22;5331;48.148;16.326;2022-07-29T03:38:44;18.00;1.00
10566;DHT22;5331;48.148;16.326;2022-07-29T03:41:13;18.00;1.00
10566;DHT22;5331;48.148;16.326;2022-07-29T03:43:42;18.00;1.00
10566;DHT22;5331;48.148;16.326;2022-07-29T03:46:10;18.00;1.00
10566;DHT22;5331;48.148;16.326;2022-07-29T03:48:42;18.00;1.00
10566;DHT22;5331;48.148;16.326;2022-07-29T03:51:10;18.00;1.00
10566;DHT22;5331;48.148;16.326;2022-07-29T03:53:37;18.00;1.00
10566;DHT22;5331;48.148;16.326;2022-07-29T03:56:06;17.90;1.00
10566;DHT22;5331;48.148;16.326;2022-07-29T03:58:34;17.90;1.00
10566;DHT22;5331;48.148;16.326;2022-07-29T04:01:02;17.90;1.00
10566;DHT22;5331;48.148;16.326;2022-07-29T04:03:29;18.00;1.00
10566;DHT22;5331;48.148;16.326;2022-07-29T04:06:01;18.00;1.00
10566;DHT22;5331;48.148;16.326;2022-07-29T04:08:28;18.10;1.00
10566;DHT22;5331;48.148;16.326;2022-07-29T04:10:55;18.10;1.00
10566;DHT22;5331;48.148;16.326;2022-07-29T04:13:23;18.10;1.00
10566;DHT22;5331;48.148;16.326;2022-07-29T04:15:50;18.10;1.00
10566;DHT22;5331;48.148;16.326;2022-07-29T04:18:17;18.10;1.00
10566;DHT22;5331;48.148;16.326;2022-07-29T04:20:44;18.20;1.00
10566;DHT22;5331;48.148;16.326;2022-07-29T04:23:11;18.30;1.00
10566;DHT22;5331;48.148;16.326;2022-07-29T04:25:38;18.30;1.00
10566;DHT22;5331;48.148;16.326;2022-07-29T04:28:05;18.30;1.00
10566;DHT22;5331;48.148;16.326;2022-07-29T04:30:35;18.40;1.00
10566;DHT22;5331;48.148;16.326;2022-07-29T04:33:03;18.50;1.00
10566;DHT22;5331;48.148;16.326;2022-07-29T04:35:33;18.50;1.00
10566;DHT22;5331;48.148;16.326;2022-07-29T04:38:00;18.60;1.00
10566;DHT22;5331;48.148;16.326;2022-07-29T04:40:28;18.70;1.00
10566;DHT22;5331;48.148;16.326;2022-07-29T04:42:55;18.80;1.00
10566;DHT22;5331;48.148;16.326;2022-07-29T04:45:22;18.90;1.00
10566;DHT22;5331;48.148;16.326;2022-07-29T04:47:50;18.90;1.00
10566;DHT22;5331;48.148;16.326;2022-07-29T04:50:17;19.10;1.00
10566;DHT22;5331;48.148;16.326;2022-07-29T04:52:44;19.10;1.00
10566;DHT22;5331;48.148;16.326;2022-07-29T04:55:11;19.30;1.00
10566;DHT22;5331;48.148;16.326;2022-07-29T04:57:38;19.40;1.00
10566;DHT22;5331;48.148;16.326;2022-07-29T05:00:06;19.50;1.00
10566;DHT22;5331;48.148;16.326;2022-07-29T05:02:33;19.60;1.00
10566;DHT22;5331;48.148;16.326;2022-07-29T05:05:02;19.70;1.00
10566;DHT22;5331;48.148;16.326;2022-07-29T05:07:28;19.80;1.00
10566;DHT22;5331;48.148;16.326;2022-07-29T05:09:55;19.80;1.00
10566;DHT22;5331;48.148;16.326;2022-07-29T05:12:23;19.90;1.00
10566;DHT22;5331;48.148;16.326;2022-07-29T05:14:50;20.00;1.00
10566;DHT22;5331;48.148;16.326;2022-07-29T05:17:17;20.10;1.00
10566;DHT22;5331;48.148;16.326;2022-07-29T05:19:44;20.20;1.00
10566;DHT22;5331;48.148;16.326;2022-07-29T05:22:12;20.30;1.00
10566;DHT22;5331;48.148;16.326;2022-07-29T05:24:39;20.40;1.00
10566;DHT22;5331;48.148;16.326;2022-07-29T05:27:06;20.50;1.00
10566;DHT22;5331;48.148;16.326;2022-07-29T05:29:33;20.70;1.00
10566;DHT22;5331;48.148;16.326;2022-07-29T05:32:00;20.80;1.00
10566;DHT22;5331;48.148;16.326;2022-07-29T05:34:27;21.00;1.00
10566;DHT22;5331;48.148;16.326;2022-07-29T05:36:54;21.20;1.00
10566;DHT22;5331;48.148;16.326;2022-07-29T05:39:23;21.40;1.00
10566;DHT22;5331;48.148;16.326;2022-07-29T05:41:50;21.40;1.00
10566;DHT22;5331;48.148;16.326;2022-07-29T05:44:17;21.60;1.00
10566;DHT22;5331;48.148;16.326;2022-07-29T05:46:44;21.70;1.00
10566;DHT22;5331;48.148;16.326;2022-07-29T05:49:11;21.70;1.00
10566;DHT22;5331;48.148;16.326;2022-07-29T05:51:38;21.70;1.00
10566;DHT22;5331;48.148;16.326;2022-07-29T05:54:05;21.90;1.00
10566;DHT22;5331;48.148;16.326;2022-07-29T05:56:35;22.20;1.00
10566;DHT22;5331;48.148;16.326;2022-07-29T05:59:02;22.40;1.00
10566;DHT22;5331;48.148;16.326;2022-07-29T06:01:29;22.60;1.00
10566;DHT22;5331;48.148;16.326;2022-07-29T06:03:56;22.80;1.00
10566;DHT22;5331;48.148;16.326;2022-07-29T06:06:23;22.90;1.00
10566;DHT22;5331;48.148;16.326;2022-07-29T06:08:50;23.00;1.00
10566;DHT22;5331;48.148;16.326;2022-07-29T06:11:17;23.10;1.00
10566;DHT22;5331;48.148;16.326;2022-07-29T06:13:45;23.30;1.00
10566;DHT22;5331;48.148;16.326;2022-07-29T06:16:12;23.40;1.00
10566;DHT22;5331;48.148;16.326;2022-07-29T06:18:39;23.70;1.00
10566;DHT22;5331;48.148;16.326;2022-07-29T06:21:08;23.90;1.00
10566;DHT22;5331;48.148;16.326;2022-07-29T06:23:36;24.00;1.00
10566;DHT22;5331;48.148;16.326;2022-07-29T06:26:04;24.20;1.00
10566;DHT22;5331;48.148;16.326;2022-07-29T06:28:32;24.20;1.00
10566;DHT22;5331;48.148;16.326;2022-07-29T06:31:00;24.30;1.00
10566;DHT22;5331;48.148;16.326;2022-07-29T06:33:27;24.50;1.00
10566;DHT22;5331;48.148;16.326;2022-07-29T06:35:54;24.50;1.00
10566;DHT22;5331;48.148;16.326;2022-07-29T06:38:21;24.40;1.00
10566;DHT22;5331;48.148;16.326;2022-07-29T06:40:48;24.30;1.00
10566;DHT22;5331;48.148;16.326;2022-07-29T06:43:29;24.20;1.00
10566;DHT22;5331;48.148;16.326;2022-07-29T06:46:00;24.10;1.00
10566;DHT22;5331;48.148;16.326;2022-07-29T06:48:27;24.10;1.00
10566;DHT22;5331;48.148;16.326;2022-07-29T06:50:55;24.10;1.00
10566;DHT22;5331;48.148;16.326;2022-07-29T06:53:22;24.10;1.00
10566;DHT22;5331;48.148;16.326;2022-07-29T06:55:49;24.10;1.00
10566;DHT22;5331;48.148;16.326;2022-07-29T06:58:16;24.10;1.00
10566;DHT22;5331;48.148;16.326;2022-07-29T07:00:45;24.10;1.00
10566;DHT22;5331;48.148;16.326;2022-07-29T07:03:14;24.00;1.00
10566;DHT22;5331;48.148;16.326;2022-07-29T07:05:41;24.00;1.00
10566;DHT22;5331;48.148;16.326;2022-07-29T07:08:08;24.00;1.00
10566;DHT22;5331;48.148;16.326;2022-07-29T07:10:36;24.00;1.00
10566;DHT22;5331;48.148;16.326;2022-07-29T07:13:03;24.10;1.00
10566;DHT22;5331;48.148;16.326;2022-07-29T07:15:30;24.10;1.00
10566;DHT22;5331;48.148;16.326;2022-07-29T07:17:57;24.30;1.00
10566;DHT22;5331;48.148;16.326;2022-07-29T07:20:26;24.30;1.00
10566;DHT22;5331;48.148;16.326;2022-07-29T07:22:53;24.40;1.00
10566;DHT22;5331;48.148;16.326;2022-07-29T07:25:20;24.50;1.00
10566;DHT22;5331;48.148;16.326;2022-07-29T07:27:47;24.60;1.00
10566;DHT22;5331;48.148;16.326;2022-07-29T07:30:14;24.70;1.00
10566;DHT22;5331;48.148;16.326;2022-07-29T07:32:41;24.80;1.00
10566;DHT22;5331;48.148;16.326;2022-07-29T07:35:09;24.90;1.00
10566;DHT22;5331;48.148;16.326;2022-07-29T07:37:38;25.00;1.00
10566;DHT22;5331;48.148;16.326;2022-07-29T07:40:07;25.10;1.00
10566;DHT22;5331;48.148;16.326;2022-07-29T07:42:35;25.20;1.00
10566;DHT22;5331;48.148;16.326;2022-07-29T07:45:02;25.50;1.00
10566;DHT22;5331;48.148;16.326;2022-07-29T07:47:29;25.80;1.00
10566;DHT22;5331;48.148;16.326;2022-07-29T07:49:56;26.30;1.00
10566;DHT22;5331;48.148;16.326;2022-07-29T07:52:23;27.00;1.00
10566;DHT22;5331;48.148;16.326;2022-07-29T07:54:51;27.90;1.00
10566;DHT22;5331;48.148;16.326;2022-07-29T07:57:18;28.60;1.00
10566;DHT22;5331;48.148;16.326;2022-07-29T07:59:45;29.10;1.00
10566;DHT22;5331;48.148;16.326;2022-07-29T08:02:12;29.50;1.00
10566;DHT22;5331;48.148;16.326;2022-07-29T08:04:39;29.40;1.00
10566;DHT22;5331;48.148;16.326;2022-07-29T08:07:06;29.30;1.00
10566;DHT22;5331;48.148;16.326;2022-07-29T08:09:34;29.30;1.00
10566;DHT22;5331;48.148;16.326;2022-07-29T08:12:03;29.20;1.00
10566;DHT22;5331;48.148;16.326;2022-07-29T08:14:31;29.20;1.00
10566;DHT22;5331;48.148;16.326;2022-07-29T08:16:59;29.30;1.00
10566;DHT22;5331;48.148;16.326;2022-07-29T08:19:26;29.70;1.00
10566;DHT22;5331;48.148;16.326;2022-07-29T08:21:53;30.00;1.00
10566;DHT22;5331;48.148;16.326;2022-07-29T08:24:20;30.20;1.00
10566;DHT22;5331;48.148;16.326;2022-07-29T08:27:06;30.40;1.00
10566;DHT22;5331;48.148;16.326;2022-07-29T08:29:33;30.10;1.00
10566;DHT22;5331;48.148;16.326;2022-07-29T08:32:00;30.00;1.00
10566;DHT22;5331;48.148;16.326;2022-07-29T08:34:27;29.90;1.00
10566;DHT22;5331;48.148;16.326;2022-07-29T08:36:54;30.20;1.00
10566;DHT22;5331;48.148;16.326;2022-07-29T08:39:21;30.40;1.00
10566;DHT22;5331;48.148;16.326;2022-07-29T08:41:49;30.60;1.00
10566;DHT22;5331;48.148;16.326;2022-07-29T08:44:18;30.90;1.00
10566;DHT22;5331;48.148;16.326;2022-07-29T08:46:45;31.10;1.00
10566;DHT22;5331;48.148;16.326;2022-07-29T08:49:12;31.00;1.00
10566;DHT22;5331;48.148;16.326;2022-07-29T08:51:40;31.10;1.00
10566;DHT22;5331;48.148;16.326;2022-07-29T08:54:08;30.90;1.00
10566;DHT22;5331;48.148;16.326;2022-07-29T08:56:35;31.10;1.00
10566;DHT22;5331;48.148;16.326;2022-07-29T08:59:03;31.20;1.00
10566;DHT22;5331;48.148;16.326;2022-07-29T09:01:33;31.00;1.00
10566;DHT22;5331;48.148;16.326;2022-07-29T09:04:03;30.50;1.00
10566;DHT22;5331;48.148;16.326;2022-07-29T09:06:32;30.10;1.00
10566;DHT22;5331;48.148;16.326;2022-07-29T09:09:00;30.00;1.00
10566;DHT22;5331;48.148;16.326;2022-07-29T09:11:28;29.90;1.00
10566;DHT22;5331;48.148;16.326;2022-07-29T09:13:55;29.80;1.00
10566;DHT22;5331;48.148;16.326;2022-07-29T09:16:21;30.20;1.00
10566;DHT22;5331;48.148;16.326;2022-07-29T09:18:50;30.10;1.00
10566;DHT22;5331;48.148;16.326;2022-07-29T09:21:17;30.50;1.00
10566;DHT22;5331;48.148;16.326;2022-07-29T09:24:04;30.80;1.00
10566;DHT22;5331;48.148;16.326;2022-07-29T09:26:33;30.90;1.00
10566;DHT22;5331;48.148;16.326;2022-07-29T09:29:08;30.80;1.00
10566;DHT22;5331;48.148;16.326;2022-07-29T09:31:37;30.50;1.00
10566;DHT22;5331;48.148;16.326;2022-07-29T09:34:06;30.00;1.00
10566;DHT22;5331;48.148;16.326;2022-07-29T09:36:39;29.60;1.00
10566;DHT22;5331;48.148;16.326;2022-07-29T09:39:06;29.50;1.00
10566;DHT22;5331;48.148;16.326;2022-07-29T09:41:45;29.70;1.00
10566;DHT22;5331;48.148;16.326;2022-07-29T09:44:12;29.60;1.00
10566;DHT22;5331;48.148;16.326;2022-07-29T09:46:40;29.80;1.00
10566;DHT22;5331;48.148;16.326;2022-07-29T09:49:11;29.70;1.00
10566;DHT22;5331;48.148;16.326;2022-07-29T09:51:40;30.10;1.00
10566;DHT22;5331;48.148;16.326;2022-07-29T09:54:22;30.20;1.00
10566;DHT22;5331;48.148;16.326;2022-07-29T09:56:50;30.30;1.00
10566;DHT22;5331;48.148;16.326;2022-07-29T09:59:16;30.30;1.00
10566;DHT22;5331;48.148;16.326;2022-07-29T10:01:46;30.40;1.00
10566;DHT22;5331;48.148;16.326;2022-07-29T10:04:14;30.90;1.00
10566;DHT22;5331;48.148;16.326;2022-07-29T10:06:56;31.30;1.00
10566;DHT22;5331;48.148;16.326;2022-07-29T10:09:23;31.80;1.00
10566;DHT22;5331;48.148;16.326;2022-07-29T10:12:07;32.30;1.00
10566;DHT22;5331;48.148;16.326;2022-07-29T10:14:37;32.50;1.00
10566;DHT22;5331;48.148;16.326;2022-07-29T10:17:06;32.70;1.00
10566;DHT22;5331;48.148;16.326;2022-07-29T10:19:36;32.90;1.00
10566;DHT22;5331;48.148;16.326;2022-07-29T10:22:06;32.60;1.00
10566;DHT22;5331;48.148;16.326;2022-07-29T10:24:34;32.10;1.00
10566;DHT22;5331;48.148;16.326;2022-07-29T10:27:02;32.10;1.00
10566;DHT22;5331;48.148;16.326;2022-07-29T10:29:30;32.20;1.00
10566;DHT22;5331;48.148;16.326;2022-07-29T10:32:11;32.50;1.00
10566;DHT22;5331;48.148;16.326;2022-07-29T10:35:07;32.80;1.00
10566;DHT22;5331;48.148;16.326;2022-07-29T10:37:56;32.90;1.00
10566;DHT22;5331;48.148;16.326;2022-07-29T10:40:31;32.80;1.00
10566;DHT22;5331;48.148;16.326;2022-07-29T10:43:19;32.50;1.00
10566;DHT22;5331;48.148;16.326;2022-07-29T10:45:49;32.50;1.00
10566;DHT22;5331;48.148;16.326;2022-07-29T10:48:21;32.30;1.00
10566;DHT22;5331;48.148;16.326;2022-07-29T10:50:55;32.10;1.00
10566;DHT22;5331;48.148;16.326;2022-07-29T10:53:23;31.80;1.00
10566;DHT22;5331;48.148;16.326;2022-07-29T10:55:51;31.70;1.00
10566;DHT22;5331;48.148;16.326;2022-07-29T10:58:19;31.60;1.00
10566;DHT22;5331;48.148;16.326;2022-07-29T11:00:48;31.50;1.00
10566;DHT22;5331;48.148;16.326;2022-07-29T11:03:44;31.50;1.00
10566;DHT22;5331;48.148;16.326;2022-07-29T11:06:13;31.30;1.00
10566;DHT22;5331;48.148;16.326;2022-07-29T11:08:41;31.10;1.00
10566;DHT22;5331;48.148;16.326;2022-07-29T11:11:35;31.10;1.00
10566;DHT22;5331;48.148;16.326;2022-07-29T11:14:06;31.00;1.00
10566;DHT22;5331;48.148;16.326;2022-07-29T11:16:59;30.60;1.00
10566;DHT22;5331;48.148;16.326;2022-07-29T11:19:28;30.30;1.00
10566;DHT22;5331;48.148;16.326;2022-07-29T11:21:56;30.50;1.00
10566;DHT22;5331;48.148;16.326;2022-07-29T11:24:25;30.60;1.00
10566;DHT22;5331;48.148;16.326;2022-07-29T11:27:13;30.50;1.00
10566;DHT22;5331;48.148;16.326;2022-07-29T11:29:52;30.50;1.00
10566;DHT22;5331;48.148;16.326;2022-07-29T11:32:20;30.30;1.00
10566;DHT22;5331;48.148;16.326;2022-07-29T11:34:48;30.20;1.00
10566;DHT22;5331;48.148;16.326;2022-07-29T11:37:21;30.20;1.00
10566;DHT22;5331;48.148;16.326;2022-07-29T11:40:13;29.90;1.00
10566;DHT22;5331;48.148;16.326;2022-07-29T11:42:48;29.70;1.00
10566;DHT22;5331;48.148;16.326;2022-07-29T11:45:18;29.90;1.00
10566;DHT22;5331;48.148;16.326;2022-07-29T11:47:54;29.90;1.00
10566;DHT22;5331;48.148;16.326;2022-07-29T11:50:32;30.00;1.00
10566;DHT22;5331;48.148;16.326;2022-07-29T11:53:02;30.30;1.00
10566;DHT22;5331;48.148;16.326;2022-07-29T11:55:29;30.30;1.00
10566;DHT22;5331;48.148;16.326;2022-07-29T11:58:01;30.50;1.00
10566;DHT22;5331;48.148;16.326;2022-07-29T12:00:30;30.70;1.00
10566;DHT22;5331;48.148;16.326;2022-07-29T12:02:59;30.60;1.00
10566;DHT22;5331;48.148;16.326;2022-07-29T12:05:35;31.00;1.00
10566;DHT22;5331;48.148;16.326;2022-07-29T12:08:11;31.20;1.00
10566;DHT22;5331;48.148;16.326;2022-07-29T12:10:39;31.50;1.00
10566;DHT22;5331;48.148;16.326;2022-07-29T12:13:07;31.40;1.00
10566;DHT22;5331;48.148;16.326;2022-07-29T12:15:34;31.40;1.00
10566;DHT22;5331;48.148;16.326;2022-07-29T12:18:10;31.00;1.00
10566;DHT22;5331;48.148;16.326;2022-07-29T12:20:37;31.60;1.00
10566;DHT22;5331;48.148;16.326;2022-07-29T12:23:07;32.00;1.00
10566;DHT22;5331;48.148;16.326;2022-07-29T12:25:35;32.10;1.00
10566;DHT22;5331;48.148;16.326;2022-07-29T12:28:05;32.00;1.00
10566;DHT22;5331;48.148;16.326;2022-07-29T12:30:50;31.60;1.00
10566;DHT22;5331;48.148;16.326;2022-07-29T12:33:20;31.60;1.00
10566;DHT22;5331;48.148;16.326;2022-07-29T12:35:50;31.60;1.00
10566;DHT22;5331;48.148;16.326;2022-07-29T12:38:20;31.60;1.00
10566;DHT22;5331;48.148;16.326;2022-07-29T23:47:48;19.70;1.00
10566;DHT22;5331;48.148;16.326;2022-07-29T23:50:15;19.80;1.00
10566;DHT22;5331;48.148;16.326;2022-07-29T23:52:42;19.90;1.00
10566;DHT22;5331;48.148;16.326;2022-07-29T23:55:09;19.90;1.00
10566;DHT22;5331;48.148;16.326;2022-07-29T23:57:36;20.00;1.00
